sensor_id;sensor_type;location;lat;lon;timestamp;P1;durP1;ratioP1;P2;durP2;ratioP2
21727;SDS011;11026;50.560;17.852;2023-11-22T00:01:24;54.90;;;41.00;;
21727;SDS011;11026;50.560;17.852;2023-11-22T00:03:53;51.75;;;38.95;;
21727;SDS011;11026;50.560;17.852;2023-11-22T00:06:21;55.70;;;40.40;;
21727;SDS011;11026;50.560;17.852;2023-11-22T00:08:48;52.03;;;39.70;;
21727;SDS011;11026;50.560;17.852;2023-11-22T00:13:46;55.30;;;40.38;;
21727;SDS011;11026;50.560;17.852;2023-11-22T00:16:17;53.72;;;40.08;;
21727;SDS011;11026;50.560;17.852;2023-11-22T00:18:45;52.72;;;39.05;;
21727;SDS011;11026;50.560;17.852;2023-11-22T00:21:14;58.80;;;41.70;;
21727;SDS011;11026;50.560;17.852;2023-11-22T00:23:42;59.78;;;43.28;;
21727;SDS011;11026;50.560;17.852;2023-11-22T00:26:09;63.00;;;43.97;;
21727;SDS011;11026;50.560;17.852;2023-11-22T00:28:37;63.92;;;45.13;;
21727;SDS011;11026;50.560;17.852;2023-11-22T00:31:05;64.57;;;44.22;;
21727;SDS011;11026;50.560;17.852;2023-11-22T00:33:33;63.00;;;44.83;;
21727;SDS011;11026;50.560;17.852;2023-11-22T00:36:02;64.53;;;44.60;;
21727;SDS011;11026;50.560;17.852;2023-11-22T00:38:31;65.22;;;46.75;;
21727;SDS011;11026;50.560;17.852;2023-11-22T00:41:00;67.18;;;46.58;;
21727;SDS011;11026;50.560;17.852;2023-11-22T00:43:29;66.40;;;47.45;;
21727;SDS011;11026;50.560;17.852;2023-11-22T00:45:56;69.07;;;46.90;;
21727;SDS011;11026;50.560;17.852;2023-11-22T00:48:24;62.72;;;44.55;;
21727;SDS011;11026;50.560;17.852;2023-11-22T00:50:50;70.05;;;48.28;;
21727;SDS011;11026;50.560;17.852;2023-11-22T00:53:18;67.53;;;45.90;;
21727;SDS011;11026;50.560;17.852;2023-11-22T00:55:45;66.20;;;46.13;;
21727;SDS011;11026;50.560;17.852;2023-11-22T00:58:13;63.25;;;44.08;;
21727;SDS011;11026;50.560;17.852;2023-11-22T01:00:40;64.10;;;45.67;;
21727;SDS011;11026;50.560;17.852;2023-11-22T01:03:07;65.72;;;45.13;;
21727;SDS011;11026;50.560;17.852;2023-11-22T01:05:41;72.82;;;48.00;;
21727;SDS011;11026;50.560;17.852;2023-11-22T01:10:41;71.70;;;46.75;;
21727;SDS011;11026;50.560;17.852;2023-11-22T01:13:08;69.45;;;47.50;;
21727;SDS011;11026;50.560;17.852;2023-11-22T01:15:37;70.88;;;45.55;;
21727;SDS011;11026;50.560;17.852;2023-11-22T01:18:05;80.88;;;50.67;;
21727;SDS011;11026;50.560;17.852;2023-11-22T01:20:32;67.07;;;46.65;;
21727;SDS011;11026;50.560;17.852;2023-11-22T01:22:59;79.55;;;50.25;;
21727;SDS011;11026;50.560;17.852;2023-11-22T01:25:27;93.70;;;53.05;;
21727;SDS011;11026;50.560;17.852;2023-11-22T01:27:55;88.22;;;52.58;;
21727;SDS011;11026;50.560;17.852;2023-11-22T01:30:23;101.65;;;55.38;;
21727;SDS011;11026;50.560;17.852;2023-11-22T01:32:50;86.35;;;52.50;;
21727;SDS011;11026;50.560;17.852;2023-11-22T01:35:17;79.20;;;48.90;;
21727;SDS011;11026;50.560;17.852;2023-11-22T01:40:16;82.22;;;49.10;;
21727;SDS011;11026;50.560;17.852;2023-11-22T01:42:46;66.10;;;45.67;;
21727;SDS011;11026;50.560;17.852;2023-11-22T01:45:15;66.75;;;43.42;;
21727;SDS011;11026;50.560;17.852;2023-11-22T01:47:43;70.03;;;45.05;;
21727;SDS011;11026;50.560;17.852;2023-11-22T01:50:11;65.68;;;43.40;;
21727;SDS011;11026;50.560;17.852;2023-11-22T01:52:41;66.63;;;44.25;;
21727;SDS011;11026;50.560;17.852;2023-11-22T01:55:10;64.47;;;43.78;;
21727;SDS011;11026;50.560;17.852;2023-11-22T01:57:40;68.20;;;45.05;;
21727;SDS011;11026;50.560;17.852;2023-11-22T02:00:07;77.57;;;50.03;;
21727;SDS011;11026;50.560;17.852;2023-11-22T02:02:34;75.00;;;47.78;;
21727;SDS011;11026;50.560;17.852;2023-11-22T02:05:03;79.88;;;50.63;;
21727;SDS011;11026;50.560;17.852;2023-11-22T02:07:32;88.78;;;52.47;;
21727;SDS011;11026;50.560;17.852;2023-11-22T02:10:01;90.97;;;53.10;;
21727;SDS011;11026;50.560;17.852;2023-11-22T02:12:29;98.78;;;54.67;;
21727;SDS011;11026;50.560;17.852;2023-11-22T02:14:58;100.13;;;54.60;;
21727;SDS011;11026;50.560;17.852;2023-11-22T02:17:27;92.22;;;54.97;;
21727;SDS011;11026;50.560;17.852;2023-11-22T02:19:55;98.47;;;55.97;;
21727;SDS011;11026;50.560;17.852;2023-11-22T02:22:23;97.55;;;55.63;;
21727;SDS011;11026;50.560;17.852;2023-11-22T02:24:50;93.75;;;54.67;;
21727;SDS011;11026;50.560;17.852;2023-11-22T02:27:18;95.28;;;56.55;;
21727;SDS011;11026;50.560;17.852;2023-11-22T02:29:46;95.32;;;54.20;;
21727;SDS011;11026;50.560;17.852;2023-11-22T02:32:15;100.60;;;57.58;;
21727;SDS011;11026;50.560;17.852;2023-11-22T02:34:42;91.55;;;54.28;;
21727;SDS011;11026;50.560;17.852;2023-11-22T02:37:09;93.88;;;55.75;;
21727;SDS011;11026;50.560;17.852;2023-11-22T02:39:51;95.15;;;55.38;;
21727;SDS011;11026;50.560;17.852;2023-11-22T02:42:28;99.43;;;55.88;;
21727;SDS011;11026;50.560;17.852;2023-11-22T02:44:56;103.65;;;59.53;;
21727;SDS011;11026;50.560;17.852;2023-11-22T02:47:24;97.25;;;58.53;;
21727;SDS011;11026;50.560;17.852;2023-11-22T02:49:52;98.28;;;58.00;;
21727;SDS011;11026;50.560;17.852;2023-11-22T02:52:21;102.25;;;58.03;;
21727;SDS011;11026;50.560;17.852;2023-11-22T02:54:50;87.82;;;52.80;;
21727;SDS011;11026;50.560;17.852;2023-11-22T02:59:50;94.28;;;54.75;;
21727;SDS011;11026;50.560;17.852;2023-11-22T03:02:16;89.05;;;54.33;;
21727;SDS011;11026;50.560;17.852;2023-11-22T03:04:44;86.47;;;52.53;;
21727;SDS011;11026;50.560;17.852;2023-11-22T03:07:12;82.70;;;50.13;;
21727;SDS011;11026;50.560;17.852;2023-11-22T03:09:40;88.78;;;53.30;;
21727;SDS011;11026;50.560;17.852;2023-11-22T03:12:07;84.68;;;50.47;;
21727;SDS011;11026;50.560;17.852;2023-11-22T03:14:35;84.25;;;51.05;;
21727;SDS011;11026;50.560;17.852;2023-11-22T03:17:04;84.28;;;51.13;;
21727;SDS011;11026;50.560;17.852;2023-11-22T03:19:32;80.85;;;51.17;;
21727;SDS011;11026;50.560;17.852;2023-11-22T03:22:01;81.97;;;51.63;;
21727;SDS011;11026;50.560;17.852;2023-11-22T03:24:31;78.18;;;50.22;;
21727;SDS011;11026;50.560;17.852;2023-11-22T03:27:01;74.28;;;48.97;;
21727;SDS011;11026;50.560;17.852;2023-11-22T03:29:28;81.13;;;50.83;;
21727;SDS011;11026;50.560;17.852;2023-11-22T03:31:56;77.45;;;50.08;;
21727;SDS011;11026;50.560;17.852;2023-11-22T03:34:23;72.53;;;48.50;;
21727;SDS011;11026;50.560;17.852;2023-11-22T03:36:50;74.05;;;47.55;;
21727;SDS011;11026;50.560;17.852;2023-11-22T03:39:17;72.72;;;46.85;;
21727;SDS011;11026;50.560;17.852;2023-11-22T03:44:14;65.13;;;44.90;;
21727;SDS011;11026;50.560;17.852;2023-11-22T03:46:42;72.60;;;48.25;;
21727;SDS011;11026;50.560;17.852;2023-11-22T03:49:09;71.85;;;48.55;;
21727;SDS011;11026;50.560;17.852;2023-11-22T03:51:36;70.88;;;46.53;;
21727;SDS011;11026;50.560;17.852;2023-11-22T03:54:06;68.00;;;45.33;;
21727;SDS011;11026;50.560;17.852;2023-11-22T03:56:33;66.85;;;45.17;;
21727;SDS011;11026;50.560;17.852;2023-11-22T03:59:01;68.55;;;44.50;;
21727;SDS011;11026;50.560;17.852;2023-11-22T04:01:28;72.18;;;46.08;;
21727;SDS011;11026;50.560;17.852;2023-11-22T04:03:55;67.85;;;46.13;;
21727;SDS011;11026;50.560;17.852;2023-11-22T04:06:22;71.05;;;47.83;;
21727;SDS011;11026;50.560;17.852;2023-11-22T04:08:51;68.30;;;45.03;;
21727;SDS011;11026;50.560;17.852;2023-11-22T04:11:20;67.22;;;45.75;;
21727;SDS011;11026;50.560;17.852;2023-11-22T04:13:49;68.85;;;46.42;;
21727;SDS011;11026;50.560;17.852;2023-11-22T04:16:17;66.28;;;44.53;;
21727;SDS011;11026;50.560;17.852;2023-11-22T04:18:46;67.50;;;44.30;;
21727;SDS011;11026;50.560;17.852;2023-11-22T04:21:13;71.88;;;46.15;;
21727;SDS011;11026;50.560;17.852;2023-11-22T04:23:41;73.80;;;46.30;;
21727;SDS011;11026;50.560;17.852;2023-11-22T04:26:09;70.38;;;45.90;;
21727;SDS011;11026;50.560;17.852;2023-11-22T04:28:36;71.15;;;46.70;;
21727;SDS011;11026;50.560;17.852;2023-11-22T04:36:08;78.93;;;50.35;;
21727;SDS011;11026;50.560;17.852;2023-11-22T04:38:37;76.70;;;48.85;;
21727;SDS011;11026;50.560;17.852;2023-11-22T04:41:05;72.97;;;48.15;;
21727;SDS011;11026;50.560;17.852;2023-11-22T04:43:32;67.38;;;44.55;;
21727;SDS011;11026;50.560;17.852;2023-11-22T04:46:00;72.28;;;46.40;;
21727;SDS011;11026;50.560;17.852;2023-11-22T04:48:28;68.70;;;44.60;;
21727;SDS011;11026;50.560;17.852;2023-11-22T04:50:55;74.40;;;45.75;;
21727;SDS011;11026;50.560;17.852;2023-11-22T04:53:22;66.38;;;43.40;;
21727;SDS011;11026;50.560;17.852;2023-11-22T04:55:49;68.22;;;44.72;;
21727;SDS011;11026;50.560;17.852;2023-11-22T04:58:17;69.53;;;44.85;;
21727;SDS011;11026;50.560;17.852;2023-11-22T05:00:44;70.07;;;44.78;;
21727;SDS011;11026;50.560;17.852;2023-11-22T05:03:12;69.55;;;44.65;;
21727;SDS011;11026;50.560;17.852;2023-11-22T05:05:39;73.50;;;46.63;;
21727;SDS011;11026;50.560;17.852;2023-11-22T05:08:09;74.45;;;46.78;;
21727;SDS011;11026;50.560;17.852;2023-11-22T05:10:37;71.82;;;44.60;;
21727;SDS011;11026;50.560;17.852;2023-11-22T05:13:04;72.57;;;45.28;;
21727;SDS011;11026;50.560;17.852;2023-11-22T05:18:02;69.15;;;45.05;;
21727;SDS011;11026;50.560;17.852;2023-11-22T05:20:29;77.43;;;45.67;;
21727;SDS011;11026;50.560;17.852;2023-11-22T05:22:56;67.00;;;44.28;;
21727;SDS011;11026;50.560;17.852;2023-11-22T05:25:24;67.55;;;44.10;;
21727;SDS011;11026;50.560;17.852;2023-11-22T05:27:50;69.50;;;44.72;;
21727;SDS011;11026;50.560;17.852;2023-11-22T05:30:20;62.45;;;41.70;;
21727;SDS011;11026;50.560;17.852;2023-11-22T05:32:50;62.38;;;41.42;;
21727;SDS011;11026;50.560;17.852;2023-11-22T05:40:24;62.53;;;40.83;;
21727;SDS011;11026;50.560;17.852;2023-11-22T05:42:52;63.35;;;43.33;;
21727;SDS011;11026;50.560;17.852;2023-11-22T05:45:19;60.17;;;41.70;;
21727;SDS011;11026;50.560;17.852;2023-11-22T05:47:45;61.13;;;41.88;;
21727;SDS011;11026;50.560;17.852;2023-11-22T05:50:13;59.20;;;40.22;;
21727;SDS011;11026;50.560;17.852;2023-11-22T05:52:40;61.28;;;41.85;;
21727;SDS011;11026;50.560;17.852;2023-11-22T05:55:08;66.50;;;43.80;;
21727;SDS011;11026;50.560;17.852;2023-11-22T05:57:37;57.45;;;38.20;;
21727;SDS011;11026;50.560;17.852;2023-11-22T06:00:05;59.50;;;39.75;;
21727;SDS011;11026;50.560;17.852;2023-11-22T06:02:32;58.70;;;40.83;;
21727;SDS011;11026;50.560;17.852;2023-11-22T06:04:59;60.88;;;41.50;;
21727;SDS011;11026;50.560;17.852;2023-11-22T06:07:28;62.05;;;44.13;;
21727;SDS011;11026;50.560;17.852;2023-11-22T06:09:56;62.05;;;42.67;;
21727;SDS011;11026;50.560;17.852;2023-11-22T06:12:24;58.58;;;40.55;;
21727;SDS011;11026;50.560;17.852;2023-11-22T06:14:51;62.90;;;45.50;;
21727;SDS011;11026;50.560;17.852;2023-11-22T06:17:19;74.50;;;49.22;;
21727;SDS011;11026;50.560;17.852;2023-11-22T06:19:47;75.63;;;47.28;;
21727;SDS011;11026;50.560;17.852;2023-11-22T06:22:14;55.63;;;39.03;;
21727;SDS011;11026;50.560;17.852;2023-11-22T06:24:43;60.63;;;40.92;;
21727;SDS011;11026;50.560;17.852;2023-11-22T06:27:10;59.30;;;41.40;;
21727;SDS011;11026;50.560;17.852;2023-11-22T06:29:38;58.47;;;43.40;;
21727;SDS011;11026;50.560;17.852;2023-11-22T06:32:06;57.97;;;39.58;;
21727;SDS011;11026;50.560;17.852;2023-11-22T06:37:06;57.15;;;40.22;;
21727;SDS011;11026;50.560;17.852;2023-11-22T06:44:37;54.63;;;37.53;;
21727;SDS011;11026;50.560;17.852;2023-11-22T06:47:05;51.63;;;35.38;;
21727;SDS011;11026;50.560;17.852;2023-11-22T06:49:34;54.53;;;37.92;;
21727;SDS011;11026;50.560;17.852;2023-11-22T06:52:02;55.97;;;37.75;;
21727;SDS011;11026;50.560;17.852;2023-11-22T06:54:30;56.10;;;39.00;;
21727;SDS011;11026;50.560;17.852;2023-11-22T06:56:58;55.10;;;38.92;;
21727;SDS011;11026;50.560;17.852;2023-11-22T06:59:25;54.53;;;38.58;;
21727;SDS011;11026;50.560;17.852;2023-11-22T07:01:53;49.72;;;36.40;;
21727;SDS011;11026;50.560;17.852;2023-11-22T07:04:22;50.38;;;37.78;;
21727;SDS011;11026;50.560;17.852;2023-11-22T07:06:50;52.53;;;37.90;;
21727;SDS011;11026;50.560;17.852;2023-11-22T07:09:17;51.08;;;37.25;;
21727;SDS011;11026;50.560;17.852;2023-11-22T07:11:45;46.35;;;33.72;;
21727;SDS011;11026;50.560;17.852;2023-11-22T07:14:12;46.75;;;34.80;;
21727;SDS011;11026;50.560;17.852;2023-11-22T07:16:41;48.00;;;33.80;;
21727;SDS011;11026;50.560;17.852;2023-11-22T07:19:08;48.63;;;34.85;;
21727;SDS011;11026;50.560;17.852;2023-11-22T07:21:36;47.22;;;34.13;;
21727;SDS011;11026;50.560;17.852;2023-11-22T07:24:04;42.28;;;31.10;;
21727;SDS011;11026;50.560;17.852;2023-11-22T07:26:34;42.47;;;31.85;;
21727;SDS011;11026;50.560;17.852;2023-11-22T07:29:03;41.35;;;31.80;;
21727;SDS011;11026;50.560;17.852;2023-11-22T07:31:31;43.55;;;31.83;;
21727;SDS011;11026;50.560;17.852;2023-11-22T07:33:59;39.53;;;31.10;;
21727;SDS011;11026;50.560;17.852;2023-11-22T07:36:28;44.22;;;32.63;;
21727;SDS011;11026;50.560;17.852;2023-11-22T07:44:01;38.20;;;29.38;;
21727;SDS011;11026;50.560;17.852;2023-11-22T07:46:28;40.72;;;30.40;;
21727;SDS011;11026;50.560;17.852;2023-11-22T07:48:57;42.83;;;31.08;;
21727;SDS011;11026;50.560;17.852;2023-11-22T07:51:24;42.30;;;32.25;;
21727;SDS011;11026;50.560;17.852;2023-11-22T07:53:53;43.88;;;33.20;;
21727;SDS011;11026;50.560;17.852;2023-11-22T07:56:20;45.10;;;34.30;;
21727;SDS011;11026;50.560;17.852;2023-11-22T07:58:47;44.63;;;34.30;;
21727;SDS011;11026;50.560;17.852;2023-11-22T08:01:15;48.15;;;36.80;;
21727;SDS011;11026;50.560;17.852;2023-11-22T08:03:42;50.80;;;37.38;;
21727;SDS011;11026;50.560;17.852;2023-11-22T08:06:16;47.13;;;35.15;;
21727;SDS011;11026;50.560;17.852;2023-11-22T08:08:45;50.17;;;35.83;;
21727;SDS011;11026;50.560;17.852;2023-11-22T08:11:13;46.35;;;35.63;;
21727;SDS011;11026;50.560;17.852;2023-11-22T08:13:47;50.65;;;37.35;;
21727;SDS011;11026;50.560;17.852;2023-11-22T08:18:47;48.20;;;37.63;;
21727;SDS011;11026;50.560;17.852;2023-11-22T08:21:14;47.17;;;36.63;;
21727;SDS011;11026;50.560;17.852;2023-11-22T08:23:42;46.40;;;36.30;;
21727;SDS011;11026;50.560;17.852;2023-11-22T08:26:10;45.30;;;34.17;;
21727;SDS011;11026;50.560;17.852;2023-11-22T08:28:40;47.15;;;37.22;;
21727;SDS011;11026;50.560;17.852;2023-11-22T08:31:08;45.28;;;35.33;;
21727;SDS011;11026;50.560;17.852;2023-11-22T08:33:39;48.00;;;36.65;;
21727;SDS011;11026;50.560;17.852;2023-11-22T08:36:06;49.13;;;38.55;;
21727;SDS011;11026;50.560;17.852;2023-11-22T08:41:12;50.72;;;38.42;;
21727;SDS011;11026;50.560;17.852;2023-11-22T08:43:41;48.78;;;36.80;;
21727;SDS011;11026;50.560;17.852;2023-11-22T08:46:08;47.80;;;36.67;;
21727;SDS011;11026;50.560;17.852;2023-11-22T08:48:41;45.92;;;33.17;;
21727;SDS011;11026;50.560;17.852;2023-11-22T08:51:09;53.63;;;36.88;;
21727;SDS011;11026;50.560;17.852;2023-11-22T08:53:37;51.60;;;35.78;;
21727;SDS011;11026;50.560;17.852;2023-11-22T08:56:04;44.88;;;33.25;;
21727;SDS011;11026;50.560;17.852;2023-11-22T08:58:32;42.17;;;30.75;;
21727;SDS011;11026;50.560;17.852;2023-11-22T09:03:31;40.45;;;29.05;;
21727;SDS011;11026;50.560;17.852;2023-11-22T09:05:59;37.50;;;27.13;;
21727;SDS011;11026;50.560;17.852;2023-11-22T09:08:27;34.83;;;26.73;;
21727;SDS011;11026;50.560;17.852;2023-11-22T09:13:27;35.47;;;26.23;;
21727;SDS011;11026;50.560;17.852;2023-11-22T09:18:33;34.63;;;26.90;;
21727;SDS011;11026;50.560;17.852;2023-11-22T09:21:01;39.00;;;28.58;;
21727;SDS011;11026;50.560;17.852;2023-11-22T09:23:29;36.97;;;26.38;;
21727;SDS011;11026;50.560;17.852;2023-11-22T09:25:56;34.05;;;27.40;;
21727;SDS011;11026;50.560;17.852;2023-11-22T09:28:24;34.67;;;25.65;;
21727;SDS011;11026;50.560;17.852;2023-11-22T09:30:51;35.88;;;26.67;;
21727;SDS011;11026;50.560;17.852;2023-11-22T09:33:19;35.22;;;26.95;;
21727;SDS011;11026;50.560;17.852;2023-11-22T09:35:48;32.35;;;25.60;;
21727;SDS011;11026;50.560;17.852;2023-11-22T09:38:16;34.67;;;25.70;;
21727;SDS011;11026;50.560;17.852;2023-11-22T09:40:48;33.80;;;26.27;;
21727;SDS011;11026;50.560;17.852;2023-11-22T09:43:16;37.35;;;28.55;;
21727;SDS011;11026;50.560;17.852;2023-11-22T09:45:49;37.70;;;28.77;;
21727;SDS011;11026;50.560;17.852;2023-11-22T09:56:24;46.63;;;34.90;;
21727;SDS011;11026;50.560;17.852;2023-11-22T09:58:51;51.72;;;35.22;;
21727;SDS011;11026;50.560;17.852;2023-11-22T10:01:28;55.38;;;38.90;;
21727;SDS011;11026;50.560;17.852;2023-11-22T10:03:59;52.65;;;36.35;;
21727;SDS011;11026;50.560;17.852;2023-11-22T10:06:27;63.78;;;42.63;;
21727;SDS011;11026;50.560;17.852;2023-11-22T10:11:32;59.95;;;42.42;;
21727;SDS011;11026;50.560;17.852;2023-11-22T10:14:00;55.08;;;39.08;;
21727;SDS011;11026;50.560;17.852;2023-11-22T10:18:59;63.15;;;41.78;;
21727;SDS011;11026;50.560;17.852;2023-11-22T10:21:29;39.35;;;29.45;;
21727;SDS011;11026;50.560;17.852;2023-11-22T10:26:39;49.90;;;38.15;;
21727;SDS011;11026;50.560;17.852;2023-11-22T10:29:07;63.97;;;42.13;;
21727;SDS011;11026;50.560;17.852;2023-11-22T10:31:35;59.22;;;38.28;;
21727;SDS011;11026;50.560;17.852;2023-11-22T10:34:06;78.88;;;48.63;;
21727;SDS011;11026;50.560;17.852;2023-11-22T10:36:35;51.97;;;32.90;;
21727;SDS011;11026;50.560;17.852;2023-11-22T10:39:03;55.42;;;37.30;;
21727;SDS011;11026;50.560;17.852;2023-11-22T10:41:36;41.83;;;31.50;;
21727;SDS011;11026;50.560;17.852;2023-11-22T10:44:06;47.50;;;33.20;;
21727;SDS011;11026;50.560;17.852;2023-11-22T10:46:36;38.03;;;29.25;;
21727;SDS011;11026;50.560;17.852;2023-11-22T10:49:08;44.63;;;31.23;;
21727;SDS011;11026;50.560;17.852;2023-11-22T10:51:39;33.72;;;26.40;;
21727;SDS011;11026;50.560;17.852;2023-11-22T10:54:11;38.75;;;29.27;;
21727;SDS011;11026;50.560;17.852;2023-11-22T10:56:39;43.95;;;35.15;;
21727;SDS011;11026;50.560;17.852;2023-11-22T10:59:12;57.55;;;43.95;;
21727;SDS011;11026;50.560;17.852;2023-11-22T11:01:43;44.45;;;34.78;;
21727;SDS011;11026;50.560;17.852;2023-11-22T11:04:23;38.95;;;30.67;;
21727;SDS011;11026;50.560;17.852;2023-11-22T11:06:58;31.92;;;26.85;;
21727;SDS011;11026;50.560;17.852;2023-11-22T11:09:27;26.80;;;21.83;;
21727;SDS011;11026;50.560;17.852;2023-11-22T11:12:00;28.73;;;25.52;;
21727;SDS011;11026;50.560;17.852;2023-11-22T11:14:36;26.50;;;22.17;;
21727;SDS011;11026;50.560;17.852;2023-11-22T11:17:05;28.35;;;23.25;;
21727;SDS011;11026;50.560;17.852;2023-11-22T11:19:35;29.75;;;23.30;;
21727;SDS011;11026;50.560;17.852;2023-11-22T11:22:02;27.55;;;20.75;;
21727;SDS011;11026;50.560;17.852;2023-11-22T11:24:37;24.65;;;17.77;;
21727;SDS011;11026;50.560;17.852;2023-11-22T11:27:09;25.65;;;20.45;;
21727;SDS011;11026;50.560;17.852;2023-11-22T11:32:11;31.08;;;23.15;;
21727;SDS011;11026;50.560;17.852;2023-11-22T11:34:48;22.27;;;18.03;;
21727;SDS011;11026;50.560;17.852;2023-11-22T11:37:21;25.75;;;20.52;;
21727;SDS011;11026;50.560;17.852;2023-11-22T11:39:50;21.35;;;15.65;;
21727;SDS011;11026;50.560;17.852;2023-11-22T11:42:17;19.83;;;15.43;;
21727;SDS011;11026;50.560;17.852;2023-11-22T11:47:36;21.52;;;16.85;;
21727;SDS011;11026;50.560;17.852;2023-11-22T11:50:04;21.00;;;17.85;;
21727;SDS011;11026;50.560;17.852;2023-11-22T11:52:31;21.10;;;17.45;;
21727;SDS011;11026;50.560;17.852;2023-11-22T11:55:05;21.45;;;18.17;;
21727;SDS011;11026;50.560;17.852;2023-11-22T11:57:33;21.25;;;17.00;;
21727;SDS011;11026;50.560;17.852;2023-11-22T12:00:00;19.48;;;15.60;;
21727;SDS011;11026;50.560;17.852;2023-11-22T12:02:30;21.45;;;16.05;;
21727;SDS011;11026;50.560;17.852;2023-11-22T12:04:59;21.63;;;17.23;;
21727;SDS011;11026;50.560;17.852;2023-11-22T12:07:27;21.20;;;17.45;;
21727;SDS011;11026;50.560;17.852;2023-11-22T12:09:55;21.10;;;15.90;;
21727;SDS011;11026;50.560;17.852;2023-11-22T12:12:24;20.45;;;16.08;;
21727;SDS011;11026;50.560;17.852;2023-11-22T12:14:53;19.85;;;15.13;;
21727;SDS011;11026;50.560;17.852;2023-11-22T12:17:22;18.50;;;13.90;;
21727;SDS011;11026;50.560;17.852;2023-11-22T12:19:52;19.65;;;15.95;;
21727;SDS011;11026;50.560;17.852;2023-11-22T12:22:20;20.38;;;16.52;;
21727;SDS011;11026;50.560;17.852;2023-11-22T12:24:48;26.80;;;21.27;;
21727;SDS011;11026;50.560;17.852;2023-11-22T12:27:15;29.35;;;21.15;;
21727;SDS011;11026;50.560;17.852;2023-11-22T12:29:43;18.10;;;14.18;;
21727;SDS011;11026;50.560;17.852;2023-11-22T12:34:44;13.20;;;11.73;;
21727;SDS011;11026;50.560;17.852;2023-11-22T12:37:12;15.23;;;11.95;;
21727;SDS011;11026;50.560;17.852;2023-11-22T12:39:39;15.15;;;11.50;;
21727;SDS011;11026;50.560;17.852;2023-11-22T16:02:25;15.60;;;13.50;;
21727;SDS011;11026;50.560;17.852;2023-11-22T16:04:53;16.00;;;12.55;;
21727;SDS011;11026;50.560;17.852;2023-11-22T16:07:21;15.43;;;12.43;;
21727;SDS011;11026;50.560;17.852;2023-11-22T16:09:48;40.70;;;29.17;;
21727;SDS011;11026;50.560;17.852;2023-11-22T16:12:15;32.40;;;25.50;;
21727;SDS011;11026;50.560;17.852;2023-11-22T16:14:46;19.63;;;16.05;;
21727;SDS011;11026;50.560;17.852;2023-11-22T16:19:45;32.45;;;21.58;;
21727;SDS011;11026;50.560;17.852;2023-11-22T16:22:12;39.78;;;23.83;;
21727;SDS011;11026;50.560;17.852;2023-11-22T16:24:41;26.83;;;17.80;;
21727;SDS011;11026;50.560;17.852;2023-11-22T16:27:08;33.60;;;21.52;;
21727;SDS011;11026;50.560;17.852;2023-11-22T16:29:36;47.15;;;27.25;;
21727;SDS011;11026;50.560;17.852;2023-11-22T16:32:04;37.88;;;26.10;;
21727;SDS011;11026;50.560;17.852;2023-11-22T16:34:31;34.55;;;25.65;;
21727;SDS011;11026;50.560;17.852;2023-11-22T16:36:59;53.50;;;33.33;;
21727;SDS011;11026;50.560;17.852;2023-11-22T16:39:26;51.85;;;36.90;;
21727;SDS011;11026;50.560;17.852;2023-11-22T16:41:55;48.42;;;29.15;;
21727;SDS011;11026;50.560;17.852;2023-11-22T16:44:22;29.45;;;18.92;;
21727;SDS011;11026;50.560;17.852;2023-11-22T16:46:49;49.75;;;33.25;;
21727;SDS011;11026;50.560;17.852;2023-11-22T16:49:19;61.20;;;41.85;;
21727;SDS011;11026;50.560;17.852;2023-11-22T16:51:49;44.50;;;28.15;;
21727;SDS011;11026;50.560;17.852;2023-11-22T16:54:16;68.55;;;36.33;;
21727;SDS011;11026;50.560;17.852;2023-11-22T16:56:48;54.97;;;32.03;;
21727;SDS011;11026;50.560;17.852;2023-11-22T16:59:15;51.47;;;29.17;;
21727;SDS011;11026;50.560;17.852;2023-11-22T17:01:44;61.97;;;33.75;;
21727;SDS011;11026;50.560;17.852;2023-11-22T17:04:11;33.13;;;22.00;;
21727;SDS011;11026;50.560;17.852;2023-11-22T17:06:41;26.55;;;17.63;;
21727;SDS011;11026;50.560;17.852;2023-11-22T17:09:09;19.17;;;14.00;;
21727;SDS011;11026;50.560;17.852;2023-11-22T17:11:41;20.10;;;16.23;;
21727;SDS011;11026;50.560;17.852;2023-11-22T17:14:10;17.40;;;14.23;;
21727;SDS011;11026;50.560;17.852;2023-11-22T17:16:37;16.65;;;13.48;;
21727;SDS011;11026;50.560;17.852;2023-11-22T17:19:04;16.25;;;13.05;;
21727;SDS011;11026;50.560;17.852;2023-11-22T17:21:32;19.95;;;16.67;;
21727;SDS011;11026;50.560;17.852;2023-11-22T17:24:01;33.53;;;24.92;;
21727;SDS011;11026;50.560;17.852;2023-11-22T17:26:32;15.65;;;12.73;;
21727;SDS011;11026;50.560;17.852;2023-11-22T17:29:02;15.68;;;13.15;;
21727;SDS011;11026;50.560;17.852;2023-11-22T17:41:24;23.55;;;18.15;;
21727;SDS011;11026;50.560;17.852;2023-11-22T17:43:51;28.33;;;20.30;;
21727;SDS011;11026;50.560;17.852;2023-11-22T17:46:20;32.63;;;22.63;;
21727;SDS011;11026;50.560;17.852;2023-11-22T17:53:41;38.30;;;26.52;;
21727;SDS011;11026;50.560;17.852;2023-11-22T17:58:36;29.45;;;22.52;;
21727;SDS011;11026;50.560;17.852;2023-11-22T18:01:03;33.33;;;22.50;;
21727;SDS011;11026;50.560;17.852;2023-11-22T18:03:33;35.78;;;22.90;;
21727;SDS011;11026;50.560;17.852;2023-11-22T18:08:31;57.75;;;39.38;;
21727;SDS011;11026;50.560;17.852;2023-11-22T18:23:15;39.28;;;23.20;;
21727;SDS011;11026;50.560;17.852;2023-11-22T18:25:43;38.10;;;23.55;;
21727;SDS011;11026;50.560;17.852;2023-11-22T18:28:12;26.00;;;19.27;;
21727;SDS011;11026;50.560;17.852;2023-11-22T18:30:40;36.28;;;22.85;;
21727;SDS011;11026;50.560;17.852;2023-11-22T18:33:08;22.00;;;16.27;;
21727;SDS011;11026;50.560;17.852;2023-11-22T18:35:41;18.80;;;15.05;;
21727;SDS011;11026;50.560;17.852;2023-11-22T18:38:10;23.50;;;15.98;;
21727;SDS011;11026;50.560;17.852;2023-11-22T18:40:37;19.50;;;14.15;;
21727;SDS011;11026;50.560;17.852;2023-11-22T18:43:06;28.73;;;17.15;;
21727;SDS011;11026;50.560;17.852;2023-11-22T18:45:34;24.27;;;15.75;;
21727;SDS011;11026;50.560;17.852;2023-11-22T18:48:01;25.30;;;17.10;;
21727;SDS011;11026;50.560;17.852;2023-11-22T18:50:30;23.45;;;15.55;;
21727;SDS011;11026;50.560;17.852;2023-11-22T18:52:57;22.20;;;17.20;;
21727;SDS011;11026;50.560;17.852;2023-11-22T18:55:25;44.17;;;24.42;;
21727;SDS011;11026;50.560;17.852;2023-11-22T18:57:52;42.50;;;24.50;;
21727;SDS011;11026;50.560;17.852;2023-11-22T19:00:19;32.13;;;24.02;;
21727;SDS011;11026;50.560;17.852;2023-11-22T19:02:46;24.83;;;18.30;;
21727;SDS011;11026;50.560;17.852;2023-11-22T19:05:14;19.27;;;15.50;;
21727;SDS011;11026;50.560;17.852;2023-11-22T19:07:42;22.98;;;17.08;;
21727;SDS011;11026;50.560;17.852;2023-11-22T19:10:09;25.88;;;20.90;;
21727;SDS011;11026;50.560;17.852;2023-11-22T19:12:36;25.42;;;18.40;;
21727;SDS011;11026;50.560;17.852;2023-11-22T19:15:06;33.63;;;19.20;;
21727;SDS011;11026;50.560;17.852;2023-11-22T19:17:35;20.67;;;15.05;;
21727;SDS011;11026;50.560;17.852;2023-11-22T19:20:03;28.33;;;18.27;;
21727;SDS011;11026;50.560;17.852;2023-11-22T19:22:32;29.05;;;19.40;;
21727;SDS011;11026;50.560;17.852;2023-11-22T19:25:02;32.28;;;20.35;;